createdAt,value
2017-08-04T00:00:39.015Z,0
2017-08-04T00:01:19.399Z,0
2017-08-04T00:01:59.861Z,0
2017-08-04T00:02:40.307Z,0
2017-08-04T00:03:20.692Z,0
2017-08-04T00:04:01.050Z,0
2017-08-04T00:04:41.487Z,0
2017-08-04T00:05:21.959Z,0
2017-08-04T00:06:02.347Z,0
2017-08-04T00:06:42.737Z,0
2017-08-04T00:07:23.168Z,0
2017-08-04T00:08:03.538Z,0
2017-08-04T00:08:43.888Z,0
2017-08-04T00:09:24.350Z,0
2017-08-04T00:10:04.680Z,0
2017-08-04T00:10:45.200Z,0
2017-08-04T00:11:25.558Z,0
2017-08-04T00:12:05.987Z,0
2017-08-04T00:12:46.557Z,0
2017-08-04T00:13:26.864Z,0
2017-08-04T00:14:07.282Z,0
2017-08-04T00:14:47.705Z,0
2017-08-04T00:15:28.140Z,0
2017-08-04T00:16:08.531Z,0
2017-08-04T00:16:48.952Z,0
2017-08-04T00:17:29.316Z,0
2017-08-04T00:18:09.740Z,0
2017-08-04T00:18:50.241Z,0
2017-08-04T00:19:30.707Z,0
2017-08-04T00:21:43.392Z,0
2017-08-04T00:22:23.910Z,0
2017-08-04T00:23:04.369Z,0
2017-08-04T00:23:44.704Z,0
2017-08-04T00:24:25.252Z,0
2017-08-04T00:25:05.684Z,0
2017-08-04T00:25:46.066Z,0
2017-08-04T00:26:26.477Z,0
2017-08-04T00:27:06.847Z,0
2017-08-04T00:27:47.297Z,0
2017-08-04T00:28:27.725Z,0
2017-08-04T00:29:08.202Z,0
2017-08-04T00:29:48.653Z,0
2017-08-04T00:30:29.058Z,0
2017-08-04T00:31:09.541Z,0
2017-08-04T00:31:49.885Z,0
2017-08-04T00:32:30.317Z,0
2017-08-04T00:33:10.751Z,0
2017-08-04T00:33:51.221Z,0
2017-08-04T00:34:31.585Z,0
2017-08-04T00:35:12.030Z,0
2017-08-04T00:35:52.439Z,0
2017-08-04T00:36:32.772Z,0
2017-08-04T00:37:13.260Z,0
2017-08-04T00:37:53.676Z,0
2017-08-04T00:38:34.063Z,0
2017-08-04T00:39:14.464Z,0
2017-08-04T00:39:54.892Z,0
2017-08-04T00:40:35.257Z,0
2017-08-04T00:41:15.674Z,0
2017-08-04T00:41:56.194Z,0
2017-08-04T00:43:55.236Z,0
2017-08-04T00:44:34.487Z,0
2017-08-04T00:45:14.914Z,0
2017-08-04T00:45:55.366Z,0
2017-08-04T00:46:35.668Z,0
2017-08-04T00:47:16.172Z,0
2017-08-04T00:47:56.461Z,0
2017-08-04T00:48:36.872Z,0
2017-08-04T00:49:17.306Z,0
2017-08-04T00:49:57.978Z,0
2017-08-04T00:50:38.153Z,0
2017-08-04T00:51:18.554Z,0
2017-08-04T00:51:58.941Z,0
2017-08-04T00:52:39.334Z,0
2017-08-04T00:53:19.730Z,0
2017-08-04T00:54:00.230Z,0
2017-08-04T00:54:40.589Z,0
2017-08-04T00:55:21.029Z,0
2017-08-04T00:56:01.414Z,0
2017-08-04T00:56:41.902Z,0
2017-08-04T00:57:22.316Z,0
2017-08-04T00:58:02.737Z,0
2017-08-04T00:58:43.183Z,0
2017-08-04T00:59:23.535Z,0
2017-08-04T01:00:03.984Z,0
2017-08-04T01:00:44.394Z,0
2017-08-04T01:01:24.803Z,0
2017-08-04T01:02:05.302Z,0
2017-08-04T01:02:45.719Z,0
2017-08-04T01:03:26.046Z,0
2017-08-04T01:05:29.303Z,0
2017-08-04T01:06:11.451Z,0
2017-08-04T01:06:51.838Z,0
2017-08-04T01:07:32.282Z,0
2017-08-04T01:08:12.634Z,0
2017-08-04T01:08:53.045Z,0
2017-08-04T01:09:33.463Z,0
2017-08-04T01:10:13.874Z,0
2017-08-04T01:10:54.297Z,0
2017-08-04T01:11:34.680Z,0
2017-08-04T01:12:15.099Z,0
2017-08-04T01:12:55.449Z,0
2017-08-04T01:13:35.820Z,0
2017-08-04T01:14:16.242Z,0
2017-08-04T01:14:56.646Z,0
2017-08-04T01:15:37.054Z,0
2017-08-04T01:16:17.472Z,0
2017-08-04T01:16:57.854Z,0
2017-08-04T01:17:38.226Z,0
2017-08-04T01:18:18.656Z,0
2017-08-04T01:18:59.081Z,0
2017-08-04T01:19:39.512Z,0
2017-08-04T01:20:19.872Z,0
2017-08-04T01:21:00.274Z,0
2017-08-04T01:21:40.760Z,0
2017-08-04T01:22:21.178Z,0
2017-08-04T01:23:01.597Z,0
2017-08-04T01:23:42.063Z,0
2017-08-04T01:24:22.537Z,0
2017-08-04T01:25:02.899Z,0
2017-08-04T01:25:43.292Z,0
2017-08-04T01:26:23.695Z,0
2017-08-04T01:27:04.063Z,0
2017-08-04T01:27:44.474Z,0
2017-08-04T01:28:24.863Z,0
2017-08-04T01:29:05.271Z,0
2017-08-04T01:29:45.712Z,0
2017-08-04T01:30:26.118Z,0
2017-08-04T01:31:06.455Z,0
2017-08-04T01:31:46.869Z,0
2017-08-04T01:32:27.278Z,0
2017-08-04T01:33:07.623Z,0
2017-08-04T01:33:48.048Z,0
2017-08-04T01:34:28.434Z,0
2017-08-04T01:35:08.908Z,0
2017-08-04T01:35:49.227Z,0
2017-08-04T01:36:29.596Z,0
2017-08-04T01:37:09.993Z,0
2017-08-04T01:37:50.421Z,0
2017-08-04T01:38:30.852Z,0
2017-08-04T01:39:11.276Z,0
2017-08-04T01:39:51.672Z,0
2017-08-04T01:40:32.078Z,0
2017-08-04T01:41:12.481Z,0
2017-08-04T01:41:52.849Z,0
2017-08-04T01:42:33.256Z,0
2017-08-04T01:43:13.657Z,0
2017-08-04T01:45:29.367Z,0
2017-08-04T01:46:09.032Z,0
2017-08-04T01:46:49.452Z,0
2017-08-04T01:49:23.122Z,0
2017-08-04T01:50:03.707Z,0
2017-08-04T01:50:43.964Z,0
2017-08-04T01:51:25.625Z,0
2017-08-04T01:52:04.773Z,0
2017-08-04T01:52:46.531Z,0
2017-08-04T01:53:26.036Z,0
2017-08-04T01:54:07.630Z,0
2017-08-04T01:54:47.976Z,0
2017-08-04T01:55:28.958Z,0
2017-08-04T01:56:09.388Z,0
2017-08-04T01:56:49.944Z,0
2017-08-04T01:57:30.445Z,0
2017-08-04T02:00:10.854Z,0
2017-08-04T02:00:51.281Z,0
2017-08-04T02:01:31.735Z,0
2017-08-04T02:02:12.184Z,0
2017-08-04T02:02:52.967Z,0
2017-08-04T02:03:34.296Z,0
2017-08-04T02:04:14.707Z,0
2017-08-04T02:04:55.121Z,0
2017-08-04T02:05:35.741Z,0
2017-08-04T02:06:16.062Z,0
2017-08-04T02:06:57.623Z,0
2017-08-04T02:07:40.282Z,0
2017-08-04T02:08:20.823Z,0
2017-08-04T02:11:09.867Z,0
2017-08-04T02:11:50.339Z,0
2017-08-04T02:12:30.796Z,0
2017-08-04T02:13:11.353Z,0
2017-08-04T02:13:51.695Z,0
2017-08-04T02:14:32.448Z,0
2017-08-04T02:15:13.083Z,0
2017-08-04T02:15:53.656Z,0
2017-08-04T02:16:34.673Z,0
2017-08-04T02:17:15.930Z,0
2017-08-04T02:17:55.781Z,0
2017-08-04T02:18:36.285Z,0
2017-08-04T02:19:17.547Z,0
2017-08-04T02:19:58.244Z,0
2017-08-04T02:22:12.223Z,0
2017-08-04T02:24:34.371Z,0
2017-08-04T02:25:14.669Z,0
2017-08-04T02:25:55.165Z,0
2017-08-04T02:26:35.534Z,0
2017-08-04T02:27:15.905Z,0
2017-08-04T02:27:56.377Z,0
2017-08-04T02:28:36.737Z,0
2017-08-04T02:29:17.177Z,0
2017-08-04T02:29:57.542Z,0
2017-08-04T02:30:37.957Z,0
2017-08-04T02:31:18.356Z,0
2017-08-04T02:31:58.749Z,0
2017-08-04T02:32:39.168Z,0
2017-08-04T02:33:19.522Z,0
2017-08-04T02:33:59.968Z,0
2017-08-04T02:34:40.307Z,0
2017-08-04T02:35:20.754Z,0
2017-08-04T02:36:01.177Z,0
2017-08-04T02:36:41.565Z,0
2017-08-04T02:37:22.004Z,0
2017-08-04T02:38:02.442Z,0
2017-08-04T02:38:42.890Z,0
2017-08-04T02:39:23.290Z,0
2017-08-04T02:40:03.675Z,0
2017-08-04T02:40:44.078Z,0
2017-08-04T02:41:24.467Z,0
2017-08-04T02:42:04.933Z,0
2017-08-04T02:42:45.319Z,0
2017-08-04T02:43:25.789Z,0
2017-08-04T02:44:06.167Z,0
2017-08-04T02:44:46.541Z,0
2017-08-04T02:45:26.982Z,0
2017-08-04T02:46:07.398Z,0
2017-08-04T02:46:47.862Z,0
2017-08-04T02:47:28.235Z,0
2017-08-04T02:48:08.676Z,0
2017-08-04T02:48:49.085Z,0
2017-08-04T02:49:29.470Z,0
2017-08-04T02:50:09.880Z,0
2017-08-04T02:50:50.277Z,0
2017-08-04T02:51:30.690Z,0
2017-08-04T02:52:11.130Z,0
2017-08-04T02:52:51.491Z,0
2017-08-04T02:53:31.915Z,0
2017-08-04T02:54:12.350Z,0
2017-08-04T02:54:52.731Z,0
2017-08-04T02:55:33.114Z,0
2017-08-04T02:58:08.516Z,0
2017-08-04T02:58:48.947Z,0
2017-08-04T02:59:29.477Z,0
2017-08-04T03:02:16.902Z,0
2017-08-04T03:03:10.605Z,0
2017-08-04T03:04:06.564Z,0
2017-08-04T03:05:04.638Z,0
2017-08-04T03:06:00.159Z,0
2017-08-04T03:06:55.967Z,0
2017-08-04T03:07:50.414Z,0
2017-08-04T03:08:46.039Z,0
2017-08-04T03:09:40.366Z,0
2017-08-04T03:10:34.161Z,0
2017-08-04T03:11:28.278Z,0
2017-08-04T03:12:22.817Z,0
2017-08-04T03:13:19.742Z,0
2017-08-04T03:14:14.606Z,0
2017-08-04T03:15:08.952Z,0
2017-08-04T03:16:02.583Z,0
2017-08-04T03:16:56.014Z,0
2017-08-04T03:17:51.701Z,0
2017-08-04T03:18:46.682Z,0
2017-08-04T03:19:41.254Z,0
2017-08-04T03:20:35.408Z,0
2017-08-04T03:21:28.880Z,0
2017-08-04T03:22:23.507Z,0
2017-08-04T03:23:15.719Z,0
2017-08-04T03:24:08.518Z,0
2017-08-04T03:25:04.739Z,0
2017-08-04T03:25:59.617Z,0
2017-08-04T03:26:52.693Z,0
2017-08-04T03:27:46.609Z,4
2017-08-04T03:28:43.974Z,4
2017-08-04T03:29:41.770Z,4
2017-08-04T03:30:36.946Z,4
2017-08-04T03:31:32.268Z,0
2017-08-04T03:32:29.323Z,0
2017-08-04T03:33:23.095Z,0
2017-08-04T03:34:19.172Z,4
2017-08-04T03:35:12.364Z,4
2017-08-04T03:36:06.047Z,4
2017-08-04T03:37:03.111Z,8
2017-08-04T03:38:00.015Z,4
2017-08-04T03:38:54.066Z,8
2017-08-04T03:39:47.961Z,8
2017-08-04T03:40:42.550Z,8
2017-08-04T03:41:36.530Z,8
2017-08-04T03:42:31.609Z,8
2017-08-04T03:43:27.969Z,12
2017-08-04T03:44:20.942Z,16
2017-08-04T03:46:46.563Z,20
2017-08-04T03:47:27.120Z,20
2017-08-04T03:48:07.454Z,24
2017-08-04T03:48:47.958Z,24
2017-08-04T03:49:28.414Z,28
2017-08-04T03:50:08.715Z,32
2017-08-04T03:50:49.227Z,32
2017-08-04T03:51:29.501Z,36
2017-08-04T03:52:09.957Z,40
2017-08-04T03:52:50.372Z,40
2017-08-04T03:53:30.726Z,40
2017-08-04T03:54:11.213Z,40
2017-08-04T03:54:51.648Z,48
2017-08-04T03:55:32.158Z,48
2017-08-04T03:56:12.572Z,48
2017-08-04T03:56:53.057Z,52
2017-08-04T03:57:33.392Z,56
2017-08-04T03:58:13.757Z,60
2017-08-04T03:58:54.226Z,68
2017-08-04T03:59:34.577Z,72
2017-08-04T04:00:15.111Z,76
2017-08-04T04:00:55.406Z,80
2017-08-04T04:01:35.838Z,88
2017-08-04T04:02:16.269Z,92
2017-08-04T04:02:56.773Z,96
2017-08-04T04:09:03.526Z,140
2017-08-04T04:09:43.712Z,144
2017-08-04T04:10:24.112Z,148
2017-08-04T04:11:04.494Z,148
2017-08-04T04:11:44.910Z,152
2017-08-04T04:12:25.379Z,156
2017-08-04T04:13:05.749Z,160
2017-08-04T04:13:46.085Z,172
2017-08-04T04:14:26.451Z,184
2017-08-04T04:15:06.916Z,196
2017-08-04T04:15:47.369Z,208
2017-08-04T04:16:27.757Z,220
2017-08-04T04:17:08.121Z,232
2017-08-04T04:17:48.606Z,240
2017-08-04T04:18:29.039Z,248
2017-08-04T04:19:09.461Z,260
2017-08-04T04:19:49.853Z,268
2017-08-04T04:20:30.183Z,284
2017-08-04T04:21:10.641Z,288
2017-08-04T04:21:51.172Z,292
2017-08-04T04:22:31.562Z,292
2017-08-04T04:23:12.046Z,284
2017-08-04T04:23:52.422Z,272
2017-08-04T04:24:32.896Z,272
2017-08-04T04:25:13.213Z,284
2017-08-04T04:25:53.638Z,292
2017-08-04T04:26:34.012Z,296
2017-08-04T04:27:14.436Z,304
2017-08-04T04:27:54.822Z,324
2017-08-04T04:28:35.332Z,352
2017-08-04T04:29:15.745Z,412
2017-08-04T04:29:56.120Z,496
2017-08-04T04:30:36.475Z,556
2017-08-04T04:31:16.914Z,576
2017-08-04T04:31:57.366Z,576
2017-08-04T04:32:37.718Z,576
2017-08-04T04:33:18.239Z,588
2017-08-04T04:33:58.714Z,628
2017-08-04T04:34:39.024Z,676
2017-08-04T04:35:19.424Z,704
2017-08-04T04:35:59.806Z,688
2017-08-04T04:36:40.343Z,624
2017-08-04T04:37:20.623Z,556
2017-08-04T04:38:01.029Z,504
2017-08-04T04:38:41.606Z,488
2017-08-04T04:39:21.998Z,524
2017-08-04T04:40:02.470Z,596
2017-08-04T04:40:42.928Z,692
2017-08-04T04:41:23.314Z,796
2017-08-04T04:42:03.676Z,864
2017-08-04T04:42:44.041Z,872
2017-08-04T04:43:24.557Z,836
2017-08-04T04:44:04.966Z,820
2017-08-04T04:44:45.389Z,836
2017-08-04T04:45:25.762Z,876
2017-08-04T04:46:06.197Z,924
2017-08-04T04:46:46.636Z,984
2017-08-04T04:47:27.091Z,1044
2017-08-04T04:48:07.515Z,1100
2017-08-04T04:48:47.842Z,1172
2017-08-04T04:49:28.308Z,1256
2017-08-04T04:50:08.638Z,1340
2017-08-04T04:50:49.081Z,1408
2017-08-04T04:51:29.632Z,1460
2017-08-04T04:52:10.089Z,1528
2017-08-04T04:52:50.503Z,1612
2017-08-04T04:53:30.906Z,1700
2017-08-04T04:54:11.322Z,1820
2017-08-04T04:54:51.720Z,1948
2017-08-04T04:55:32.215Z,2048
2017-08-04T04:56:12.791Z,2120
2017-08-04T04:56:53.331Z,2132
2017-08-04T04:57:33.835Z,2080
2017-08-04T04:58:14.319Z,1956
2017-08-04T04:58:54.681Z,1804
2017-08-04T04:59:35.079Z,1684
2017-08-04T05:00:15.461Z,1608
2017-08-04T05:00:55.882Z,1572
2017-08-04T05:01:36.457Z,1512
2017-08-04T05:02:16.801Z,1388
2017-08-04T05:02:57.292Z,1248
2017-08-04T05:03:37.924Z,1136
2017-08-04T05:04:18.536Z,1100
2017-08-04T05:04:58.934Z,1152
2017-08-04T05:05:39.375Z,1284
2017-08-04T05:06:19.821Z,1424
2017-08-04T05:07:00.342Z,1504
2017-08-04T05:07:40.760Z,1540
2017-08-04T05:08:21.133Z,1536
2017-08-04T05:09:01.602Z,1504
2017-08-04T05:09:41.938Z,1484
2017-08-04T05:10:22.322Z,1484
2017-08-04T05:11:02.769Z,1512
2017-08-04T05:11:43.256Z,1604
2017-08-04T05:12:23.713Z,1768
2017-08-04T05:13:04.105Z,1996
2017-08-04T05:13:44.533Z,2220
2017-08-04T05:14:24.989Z,2420
2017-08-04T05:15:05.421Z,2568
2017-08-04T05:15:45.887Z,2684
2017-08-04T05:16:26.452Z,2788
2017-08-04T05:17:06.927Z,2868
2017-08-04T05:17:47.438Z,2896
2017-08-04T05:18:27.895Z,2932
2017-08-04T05:19:08.360Z,3000
2017-08-04T05:19:48.681Z,3140
2017-08-04T05:20:29.306Z,3328
2017-08-04T05:21:09.784Z,3456
2017-08-04T05:21:50.333Z,3432
2017-08-04T05:22:30.805Z,3216
2017-08-04T05:23:11.090Z,2912
2017-08-04T05:23:51.510Z,2672
2017-08-04T05:24:31.950Z,2600
2017-08-04T05:25:12.290Z,2716
2017-08-04T05:25:52.939Z,2892
2017-08-04T05:26:33.501Z,2976
2017-08-04T05:27:14.076Z,2904
2017-08-04T05:27:54.330Z,2696
2017-08-04T05:28:34.915Z,2536
2017-08-04T05:29:15.487Z,2524
2017-08-04T05:29:55.693Z,2628
2017-08-04T05:30:36.157Z,2616
2017-08-04T05:31:16.489Z,2428
2017-08-04T05:31:56.879Z,2240
2017-08-04T05:32:37.432Z,2200
2017-08-04T05:33:17.733Z,2288
2017-08-04T05:33:58.165Z,2404
2017-08-04T05:34:38.491Z,2460
2017-08-04T05:35:18.958Z,2432
2017-08-04T05:35:59.431Z,2388
2017-08-04T05:36:39.916Z,2552
2017-08-04T05:37:20.393Z,3032
2017-08-04T05:38:01.424Z,3572
2017-08-04T05:38:41.855Z,3792
2017-08-04T05:39:22.865Z,3668
2017-08-04T05:40:03.338Z,3356
2017-08-04T05:40:43.717Z,2964
2017-08-04T05:41:24.744Z,2588
2017-08-04T05:42:05.136Z,2348
2017-08-04T05:42:45.644Z,2308
2017-08-04T05:43:26.088Z,2344
2017-08-04T05:44:06.516Z,2420
2017-08-04T05:44:47.143Z,2428
2017-08-04T05:45:27.768Z,2272
2017-08-04T05:46:08.312Z,2088
2017-08-04T05:46:48.785Z,1956
2017-08-04T05:47:29.163Z,1876
2017-08-04T05:48:09.615Z,1828
2017-08-04T05:48:50.005Z,1808
2017-08-04T05:49:30.493Z,1800
2017-08-04T05:50:10.889Z,1876
2017-08-04T05:50:51.319Z,2032
2017-08-04T05:51:31.722Z,2112
2017-08-04T05:52:12.099Z,2100
2017-08-04T05:52:52.532Z,2100
2017-08-04T05:53:32.922Z,2172
2017-08-04T05:54:13.406Z,2236
2017-08-04T05:54:53.757Z,2256
2017-08-04T05:55:34.234Z,2200
2017-08-04T05:56:14.673Z,2096
2017-08-04T05:56:55.061Z,2072
2017-08-04T05:57:35.559Z,2144
2017-08-04T05:58:16.014Z,2272
2017-08-04T05:58:56.404Z,2328
2017-08-04T05:59:36.825Z,2408
2017-08-04T06:00:17.281Z,2648
2017-08-04T06:00:57.687Z,2948
2017-08-04T06:01:38.870Z,3412
2017-08-04T06:02:18.570Z,3920
2017-08-04T06:02:58.949Z,4156
2017-08-04T06:03:39.624Z,4188
2017-08-04T06:04:20.089Z,4044
2017-08-04T06:05:00.725Z,3784
2017-08-04T06:05:41.087Z,3648
2017-08-04T06:06:21.492Z,3476
2017-08-04T06:07:02.192Z,3236
2017-08-04T06:07:42.609Z,2876
2017-08-04T06:08:23.071Z,2496
2017-08-04T06:09:03.402Z,2260
2017-08-04T06:09:43.880Z,2172
2017-08-04T06:10:25.170Z,2120
2017-08-04T06:11:05.682Z,2056
2017-08-04T06:11:46.042Z,2212
2017-08-04T06:12:26.496Z,2828
2017-08-04T06:13:06.908Z,3396
2017-08-04T06:13:47.361Z,3480
2017-08-04T06:14:27.835Z,3192
2017-08-04T06:15:08.307Z,2692
2017-08-04T06:17:50.867Z,2852
2017-08-04T06:18:31.413Z,2868
2017-08-04T06:19:12.216Z,2888
2017-08-04T06:19:52.671Z,2892
2017-08-04T06:20:33.542Z,2864
2017-08-04T06:21:14.326Z,2740
2017-08-04T06:21:55.433Z,2608
2017-08-04T06:22:35.987Z,2508
2017-08-04T06:23:16.659Z,2396
2017-08-04T06:23:57.368Z,2360
2017-08-04T06:24:37.888Z,2476
2017-08-04T06:25:19.521Z,2880
2017-08-04T06:26:00.100Z,3524
2017-08-04T06:26:40.613Z,4264
2017-08-04T06:27:21.165Z,5060
2017-08-04T06:28:01.711Z,5548
2017-08-04T06:28:42.171Z,5688
2017-08-04T06:29:22.825Z,5584
2017-08-04T06:30:03.490Z,5436
2017-08-04T06:30:44.130Z,5316
2017-08-04T06:31:24.595Z,5520
2017-08-04T06:32:05.106Z,6228
2017-08-04T06:32:45.601Z,7048
2017-08-04T06:33:26.222Z,7892
2017-08-04T06:34:06.718Z,8412
2017-08-04T06:34:47.171Z,8492
2017-08-04T06:35:27.641Z,8236
2017-08-04T06:36:08.960Z,7404
2017-08-04T06:36:48.798Z,6416
2017-08-04T06:37:29.326Z,5412
2017-08-04T06:38:09.982Z,4612
2017-08-04T06:38:50.608Z,4016
2017-08-04T06:39:31.258Z,3696
2017-08-04T06:40:11.931Z,3768
2017-08-04T06:40:53.086Z,4080
2017-08-04T06:41:33.549Z,4244
2017-08-04T06:42:14.176Z,4040
2017-08-04T06:42:54.738Z,3832
2017-08-04T06:43:35.208Z,4096
2017-08-04T06:44:16.282Z,4644
2017-08-04T06:44:57.026Z,4944
2017-08-04T06:45:37.457Z,4764
2017-08-04T06:46:17.977Z,4236
2017-08-04T06:46:59.074Z,3960
2017-08-04T06:47:39.728Z,4068
2017-08-04T06:48:20.383Z,4396
2017-08-04T06:49:01.039Z,4780
2017-08-04T06:49:41.649Z,5208
2017-08-04T06:50:22.124Z,5424
2017-08-04T06:51:02.748Z,5252
2017-08-04T06:51:43.168Z,4648
2017-08-04T06:52:23.729Z,4072
2017-08-04T06:53:04.328Z,3896
2017-08-04T06:53:44.755Z,3976
2017-08-04T06:54:25.431Z,4228
2017-08-04T06:55:06.156Z,4584
2017-08-04T06:55:46.491Z,5024
2017-08-04T06:56:27.220Z,5568
2017-08-04T06:57:07.994Z,6372
2017-08-04T06:57:48.526Z,7260
2017-08-04T06:58:28.992Z,8160
2017-08-04T06:59:09.568Z,9032
2017-08-04T06:59:50.361Z,9988
2017-08-04T07:00:31.047Z,10748
2017-08-04T07:01:11.863Z,11240
2017-08-04T07:01:52.382Z,12004
2017-08-04T07:02:32.809Z,12916
2017-08-04T07:03:13.403Z,14204
2017-08-04T07:03:54.075Z,15556
2017-08-04T07:04:34.655Z,17344
2017-08-04T07:05:15.265Z,18464
2017-08-04T07:05:55.668Z,19360
2017-08-04T07:06:36.229Z,52064
2017-08-04T07:07:16.738Z,23904
2017-08-04T07:07:57.271Z,16388
2017-08-04T07:08:37.765Z,13904
2017-08-04T07:09:18.472Z,13176
2017-08-04T07:09:59.090Z,12868
2017-08-04T07:10:39.791Z,13292
2017-08-04T07:11:20.355Z,13784
2017-08-04T07:12:00.907Z,14008
2017-08-04T07:12:41.539Z,13732
2017-08-04T07:13:22.175Z,12384
2017-08-04T07:14:02.655Z,11148
2017-08-04T07:14:43.357Z,11052
2017-08-04T07:15:24.020Z,12308
2017-08-04T07:16:04.616Z,14192
2017-08-04T07:16:45.233Z,15448
2017-08-04T07:17:25.639Z,15712
2017-08-04T07:18:06.058Z,16152
2017-08-04T07:18:46.813Z,16664
2017-08-04T07:19:28.147Z,16464
2017-08-04T07:20:08.666Z,15624
2017-08-04T07:20:49.266Z,15476
2017-08-04T07:21:29.803Z,14384
2017-08-04T07:22:10.428Z,13336
2017-08-04T07:22:51.039Z,12180
2017-08-04T07:23:31.551Z,11508
2017-08-04T07:24:12.051Z,11000
2017-08-04T07:24:52.690Z,10564
2017-08-04T07:25:33.328Z,10432
2017-08-04T07:26:14.017Z,10196
2017-08-04T07:26:54.394Z,9576
2017-08-04T07:27:34.970Z,8820
2017-08-04T07:28:15.747Z,8456
2017-08-04T07:28:56.981Z,8552
2017-08-04T07:29:37.784Z,9364
2017-08-04T07:30:18.898Z,10544
2017-08-04T07:31:00.132Z,11608
2017-08-04T07:31:40.659Z,12352
2017-08-04T07:32:21.327Z,12816
2017-08-04T07:33:01.758Z,12948
2017-08-04T07:33:42.453Z,12480
2017-08-04T07:34:23.078Z,11844
2017-08-04T07:35:03.583Z,11632
2017-08-04T07:35:44.049Z,11552
2017-08-04T07:36:24.624Z,11372
2017-08-04T07:37:05.410Z,10944
2017-08-04T07:37:46.073Z,10024
2017-08-04T07:38:26.619Z,9632
2017-08-04T07:39:07.144Z,10144
2017-08-04T07:39:47.617Z,10932
2017-08-04T07:40:28.229Z,11108
2017-08-04T07:41:08.809Z,11632
2017-08-04T07:41:49.253Z,13408
2017-08-04T07:42:29.812Z,16492
2017-08-04T07:43:10.379Z,19392
2017-08-04T07:43:51.276Z,21920
2017-08-04T07:44:32.344Z,23456
2017-08-04T07:45:12.776Z,20448
2017-08-04T07:45:53.259Z,19232
2017-08-04T07:46:33.924Z,18784
2017-08-04T07:47:14.410Z,19296
2017-08-04T07:47:54.987Z,19840
2017-08-04T07:48:35.411Z,20704
2017-08-04T07:49:16.150Z,21856
2017-08-04T07:49:56.647Z,25120
2017-08-04T07:50:37.350Z,26688
2017-08-04T07:51:17.927Z,29440
2017-08-04T07:51:58.833Z,31552
2017-08-04T07:52:39.287Z,25504
2017-08-04T07:53:19.791Z,24000
2017-08-04T07:54:00.270Z,23168
2017-08-04T07:54:40.832Z,23232
2017-08-04T07:55:21.503Z,23520
2017-08-04T07:56:02.008Z,23808
2017-08-04T07:56:43.464Z,24512
2017-08-04T07:57:24.032Z,27168
2017-08-04T07:58:04.532Z,25408
2017-08-04T07:58:45.002Z,25920
2017-08-04T07:59:26.571Z,25280
2017-08-04T08:00:07.156Z,24480
2017-08-04T08:00:48.490Z,23680
2017-08-04T08:01:28.910Z,23488
2017-08-04T08:02:09.413Z,25664
2017-08-04T08:02:50.127Z,28672
2017-08-04T08:03:30.690Z,46848
2017-08-04T08:04:11.431Z,31520
2017-08-04T08:04:51.805Z,30976
2017-08-04T08:05:32.380Z,31616
2017-08-04T08:06:12.824Z,32736
2017-08-04T08:06:53.381Z,28320
2017-08-04T08:07:34.202Z,24800
2017-08-04T08:08:14.656Z,24704
2017-08-04T08:08:55.221Z,25216
2017-08-04T08:09:35.729Z,18624
2017-08-04T08:10:16.371Z,16344
2017-08-04T08:10:56.904Z,16048
2017-08-04T08:11:37.412Z,16816
2017-08-04T08:12:17.864Z,17664
2017-08-04T08:12:58.830Z,20768
2017-08-04T08:13:39.941Z,22848
2017-08-04T08:14:20.524Z,25696
2017-08-04T08:15:01.196Z,31456
2017-08-04T08:15:41.764Z,48192
2017-08-04T08:16:22.447Z,60096
2017-08-04T08:17:03.092Z,25536
2017-08-04T08:17:43.634Z,21664
2017-08-04T08:18:24.168Z,21568
2017-08-04T08:19:04.697Z,21952
2017-08-04T08:19:45.281Z,21920
2017-08-04T08:20:26.107Z,20960
2017-08-04T08:21:06.488Z,20160
2017-08-04T08:21:47.525Z,17920
2017-08-04T08:22:28.095Z,18496
2017-08-04T08:23:09.080Z,21376
2017-08-04T08:23:49.810Z,25248
2017-08-04T08:24:30.874Z,27104
2017-08-04T08:25:11.402Z,27040
2017-08-04T08:25:52.210Z,23968
2017-08-04T08:26:32.794Z,24192
2017-08-04T08:27:13.545Z,24448
2017-08-04T08:27:54.159Z,24512
2017-08-04T08:28:35.436Z,19008
2017-08-04T08:29:16.132Z,15616
2017-08-04T08:29:56.926Z,16448
2017-08-04T08:30:37.423Z,19264
2017-08-04T08:31:18.022Z,21600
2017-08-04T08:31:58.838Z,22496
2017-08-04T08:32:39.357Z,22464
2017-08-04T08:33:20.792Z,21952
2017-08-04T08:34:01.395Z,23744
2017-08-04T08:34:41.965Z,26816
2017-08-04T08:35:22.471Z,32320
2017-08-04T08:36:03.253Z,36896
2017-08-04T08:36:43.877Z,27776
2017-08-04T08:37:24.523Z,24960
2017-08-04T08:38:05.018Z,28608
2017-08-04T08:38:46.145Z,26784
2017-08-04T08:39:26.402Z,28672
2017-08-04T08:40:07.007Z,27744
2017-08-04T08:40:47.640Z,27328
2017-08-04T08:41:28.187Z,28192
2017-08-04T08:42:09.213Z,28832
2017-08-04T08:42:50.464Z,29760
2017-08-04T08:43:30.977Z,33824
2017-08-04T08:44:11.637Z,54752
2017-08-04T08:44:52.184Z,42368
2017-08-04T08:45:32.955Z,28896
2017-08-04T08:46:13.443Z,27296
2017-08-04T08:46:53.882Z,26624
2017-08-04T08:47:34.398Z,33632
2017-08-04T08:48:14.998Z,103136
2017-08-04T08:48:55.486Z,55328
2017-08-04T08:49:35.973Z,26784
2017-08-04T08:50:16.533Z,22016
2017-08-04T08:50:57.024Z,19776
2017-08-04T08:51:37.612Z,20224
2017-08-04T08:52:18.541Z,24768
2017-08-04T08:52:59.193Z,30624
2017-08-04T08:53:39.698Z,30400
2017-08-04T08:54:20.340Z,33024
2017-08-04T08:55:00.871Z,32256
2017-08-04T08:55:41.379Z,78720
2017-08-04T08:56:22.155Z,37568
2017-08-04T08:57:02.590Z,42176
2017-08-04T08:57:43.264Z,30304
2017-08-04T08:58:24.029Z,26784
2017-08-04T08:59:05.023Z,21760
2017-08-04T08:59:45.612Z,20832
2017-08-04T09:00:26.034Z,20864
2017-08-04T09:01:06.904Z,22496
2017-08-04T09:01:47.518Z,28544
2017-08-04T09:02:28.373Z,35040
2017-08-04T09:03:08.600Z,66336
2017-08-04T09:03:49.261Z,52768
2017-08-04T09:04:29.843Z,44768
2017-08-04T09:05:10.754Z,70048
2017-08-04T09:05:51.409Z,79232
2017-08-04T09:06:32.003Z,55456
2017-08-04T09:07:12.510Z,50272
2017-08-04T09:07:53.032Z,35040
2017-08-04T09:08:33.697Z,31744
2017-08-04T09:09:14.402Z,31360
2017-08-04T09:09:55.671Z,31776
2017-08-04T09:10:36.200Z,35136
2017-08-04T09:11:16.930Z,35872
2017-08-04T09:11:57.546Z,38016
2017-08-04T09:12:38.327Z,42112
2017-08-04T09:13:18.908Z,36224
2017-08-04T09:13:59.610Z,53920
2017-08-04T09:14:40.152Z,29568
2017-08-04T09:15:21.002Z,28448
2017-08-04T09:16:01.532Z,28992
2017-08-04T09:16:42.580Z,31680
2017-08-04T09:17:23.091Z,33472
2017-08-04T09:18:03.627Z,34240
2017-08-04T09:18:44.442Z,32992
2017-08-04T09:19:25.068Z,31648
2017-08-04T09:20:05.560Z,31168
2017-08-04T09:20:46.140Z,29984
2017-08-04T09:21:26.685Z,29888
2017-08-04T09:22:07.192Z,30752
2017-08-04T09:22:47.726Z,31360
2017-08-04T09:23:28.287Z,32960
2017-08-04T09:24:09.004Z,57824
2017-08-04T09:24:49.796Z,35904
2017-08-04T09:25:31.571Z,34048
2017-08-04T09:26:11.683Z,32672
2017-08-04T09:26:52.250Z,36032
2017-08-04T09:27:33.683Z,48736
2017-08-04T09:28:14.319Z,45952
2017-08-04T09:28:54.780Z,43904
2017-08-04T09:29:35.466Z,39808
2017-08-04T09:30:16.030Z,41440
2017-08-04T09:30:56.579Z,40704
2017-08-04T09:31:37.231Z,29344
2017-08-04T09:32:17.966Z,30688
2017-08-04T09:32:59.246Z,24768
2017-08-04T09:33:39.748Z,22784
2017-08-04T09:34:20.204Z,20416
2017-08-04T09:35:00.704Z,18848
2017-08-04T09:35:41.406Z,18784
2017-08-04T09:36:22.064Z,21088
2017-08-04T09:37:02.507Z,22688
2017-08-04T09:37:43.063Z,24128
2017-08-04T09:38:23.630Z,37632
2017-08-04T09:39:04.160Z,82592
2017-08-04T09:39:44.651Z,109472
2017-08-04T09:40:25.458Z,108800
2017-08-04T09:41:06.024Z,108064
2017-08-04T09:41:46.573Z,115872
2017-08-04T09:42:27.220Z,34592
2017-08-04T09:43:08.769Z,30336
2017-08-04T09:43:49.344Z,20736
2017-08-04T09:44:30.001Z,17952
2017-08-04T09:45:10.490Z,18400
2017-08-04T09:45:51.248Z,21248
2017-08-04T09:46:31.797Z,30176
2017-08-04T09:47:12.217Z,108288
2017-08-04T09:47:52.908Z,38112
2017-08-04T09:48:33.538Z,39424
2017-08-04T09:49:13.966Z,109632
2017-08-04T09:49:54.510Z,67040
2017-08-04T09:50:35.240Z,112736
2017-08-04T09:51:15.734Z,36960
2017-08-04T09:51:56.986Z,47616
2017-08-04T09:52:37.064Z,36800
2017-08-04T09:53:17.566Z,77632
2017-08-04T09:53:58.175Z,27136
2017-08-04T09:54:38.708Z,26432
2017-08-04T09:55:19.274Z,25504